sensor_id;sensor_type;location;lat;lon;timestamp;P1;durP1;ratioP1;P2;durP2;ratioP2
29732;SDS011;16643;43.158;25.302;2023-05-07T00:01:43;15.65;;;5.47;;
29732;SDS011;16643;43.158;25.302;2023-05-07T00:04:08;10.90;;;6.07;;
29732;SDS011;16643;43.158;25.302;2023-05-07T00:06:34;8.73;;;5.38;;
29732;SDS011;16643;43.158;25.302;2023-05-07T00:08:59;7.85;;;5.70;;
29732;SDS011;16643;43.158;25.302;2023-05-07T00:11:26;10.65;;;5.55;;
29732;SDS011;16643;43.158;25.302;2023-05-07T00:13:53;17.20;;;5.68;;
29732;SDS011;16643;43.158;25.302;2023-05-07T00:16:19;8.13;;;5.47;;
29732;SDS011;16643;43.158;25.302;2023-05-07T00:18:44;7.55;;;5.60;;
29732;SDS011;16643;43.158;25.302;2023-05-07T00:21:10;9.30;;;5.40;;
29732;SDS011;16643;43.158;25.302;2023-05-07T00:23:36;8.32;;;5.32;;
29732;SDS011;16643;43.158;25.302;2023-05-07T00:26:01;9.80;;;5.80;;
29732;SDS011;16643;43.158;25.302;2023-05-07T00:28:27;7.57;;;5.32;;
29732;SDS011;16643;43.158;25.302;2023-05-07T00:30:53;9.07;;;5.30;;
29732;SDS011;16643;43.158;25.302;2023-05-07T00:33:18;8.75;;;5.25;;
29732;SDS011;16643;43.158;25.302;2023-05-07T00:35:45;6.78;;;4.97;;
29732;SDS011;16643;43.158;25.302;2023-05-07T00:38:11;8.18;;;5.47;;
29732;SDS011;16643;43.158;25.302;2023-05-07T00:40:36;6.90;;;4.90;;
29732;SDS011;16643;43.158;25.302;2023-05-07T00:43:02;10.18;;;5.60;;
29732;SDS011;16643;43.158;25.302;2023-05-07T00:45:28;11.63;;;5.38;;
29732;SDS011;16643;43.158;25.302;2023-05-07T00:47:58;7.90;;;6.28;;
29732;SDS011;16643;43.158;25.302;2023-05-07T00:50:27;7.95;;;5.55;;
29732;SDS011;16643;43.158;25.302;2023-05-07T00:52:54;9.55;;;5.20;;
29732;SDS011;16643;43.158;25.302;2023-05-07T00:55:21;8.50;;;6.03;;
29732;SDS011;16643;43.158;25.302;2023-05-07T00:57:47;7.90;;;5.65;;
29732;SDS011;16643;43.158;25.302;2023-05-07T01:00:13;9.32;;;5.45;;
29732;SDS011;16643;43.158;25.302;2023-05-07T01:02:39;8.32;;;5.80;;
29732;SDS011;16643;43.158;25.302;2023-05-07T01:05:05;8.63;;;5.70;;
29732;SDS011;16643;43.158;25.302;2023-05-07T01:07:34;12.02;;;5.57;;
29732;SDS011;16643;43.158;25.302;2023-05-07T01:10:00;8.63;;;6.50;;
29732;SDS011;16643;43.158;25.302;2023-05-07T01:12:28;7.53;;;5.97;;
29732;SDS011;16643;43.158;25.302;2023-05-07T01:14:54;9.23;;;6.07;;
29732;SDS011;16643;43.158;25.302;2023-05-07T01:17:20;8.02;;;5.82;;
29732;SDS011;16643;43.158;25.302;2023-05-07T01:19:46;9.32;;;5.53;;
29732;SDS011;16643;43.158;25.302;2023-05-07T01:22:13;11.15;;;5.68;;
29732;SDS011;16643;43.158;25.302;2023-05-07T01:24:41;8.35;;;5.30;;
29732;SDS011;16643;43.158;25.302;2023-05-07T01:27:07;9.23;;;6.07;;
29732;SDS011;16643;43.158;25.302;2023-05-07T01:29:33;9.95;;;6.20;;
29732;SDS011;16643;43.158;25.302;2023-05-07T01:32:00;8.35;;;5.50;;
29732;SDS011;16643;43.158;25.302;2023-05-07T01:34:30;8.82;;;5.60;;
29732;SDS011;16643;43.158;25.302;2023-05-07T01:36:57;9.93;;;6.32;;
29732;SDS011;16643;43.158;25.302;2023-05-07T01:39:25;10.10;;;5.63;;
29732;SDS011;16643;43.158;25.302;2023-05-07T01:41:52;8.07;;;5.87;;
29732;SDS011;16643;43.158;25.302;2023-05-07T01:44:20;7.80;;;5.20;;
29732;SDS011;16643;43.158;25.302;2023-05-07T01:46:47;9.75;;;5.85;;
29732;SDS011;16643;43.158;25.302;2023-05-07T01:49:13;8.15;;;6.10;;
29732;SDS011;16643;43.158;25.302;2023-05-07T01:51:39;8.93;;;5.50;;
29732;SDS011;16643;43.158;25.302;2023-05-07T01:54:05;8.77;;;5.20;;
29732;SDS011;16643;43.158;25.302;2023-05-07T01:56:31;8.18;;;6.18;;
29732;SDS011;16643;43.158;25.302;2023-05-07T01:58:57;13.43;;;6.20;;
29732;SDS011;16643;43.158;25.302;2023-05-07T02:01:23;7.75;;;5.00;;
29732;SDS011;16643;43.158;25.302;2023-05-07T02:03:48;9.52;;;5.65;;
29732;SDS011;16643;43.158;25.302;2023-05-07T02:06:14;8.02;;;5.53;;
29732;SDS011;16643;43.158;25.302;2023-05-07T02:08:40;12.93;;;5.63;;
29732;SDS011;16643;43.158;25.302;2023-05-07T02:11:05;9.38;;;5.50;;
29732;SDS011;16643;43.158;25.302;2023-05-07T02:13:32;7.45;;;5.05;;
29732;SDS011;16643;43.158;25.302;2023-05-07T02:15:58;8.68;;;5.70;;
29732;SDS011;16643;43.158;25.302;2023-05-07T02:18:24;8.90;;;5.45;;
29732;SDS011;16643;43.158;25.302;2023-05-07T02:20:49;9.68;;;5.63;;
29732;SDS011;16643;43.158;25.302;2023-05-07T02:23:15;11.52;;;5.53;;
29732;SDS011;16643;43.158;25.302;2023-05-07T02:25:41;7.95;;;5.38;;
29732;SDS011;16643;43.158;25.302;2023-05-07T02:28:06;10.40;;;5.35;;
29732;SDS011;16643;43.158;25.302;2023-05-07T02:30:32;7.80;;;5.60;;
29732;SDS011;16643;43.158;25.302;2023-05-07T02:32:58;9.88;;;5.95;;
29732;SDS011;16643;43.158;25.302;2023-05-07T02:35:24;8.95;;;6.05;;
29732;SDS011;16643;43.158;25.302;2023-05-07T02:37:50;9.00;;;6.25;;
29732;SDS011;16643;43.158;25.302;2023-05-07T02:40:16;8.45;;;5.10;;
29732;SDS011;16643;43.158;25.302;2023-05-07T02:42:42;9.77;;;6.35;;
29732;SDS011;16643;43.158;25.302;2023-05-07T02:45:07;9.98;;;5.82;;
29732;SDS011;16643;43.158;25.302;2023-05-07T02:47:33;11.93;;;5.75;;
29732;SDS011;16643;43.158;25.302;2023-05-07T02:49:59;7.88;;;5.78;;
29732;SDS011;16643;43.158;25.302;2023-05-07T02:52:25;11.23;;;5.82;;
29732;SDS011;16643;43.158;25.302;2023-05-07T02:54:50;8.85;;;5.53;;
29732;SDS011;16643;43.158;25.302;2023-05-07T02:57:16;6.32;;;4.45;;
29732;SDS011;16643;43.158;25.302;2023-05-07T02:59:42;7.60;;;5.45;;
29732;SDS011;16643;43.158;25.302;2023-05-07T03:02:08;8.00;;;4.70;;
29732;SDS011;16643;43.158;25.302;2023-05-07T03:04:33;8.05;;;4.60;;
29732;SDS011;16643;43.158;25.302;2023-05-07T03:06:59;8.30;;;5.20;;
29732;SDS011;16643;43.158;25.302;2023-05-07T03:09:25;7.95;;;4.80;;
29732;SDS011;16643;43.158;25.302;2023-05-07T03:11:51;7.18;;;4.50;;
29732;SDS011;16643;43.158;25.302;2023-05-07T03:14:16;8.43;;;5.00;;
29732;SDS011;16643;43.158;25.302;2023-05-07T03:16:42;6.40;;;4.60;;
29732;SDS011;16643;43.158;25.302;2023-05-07T03:19:07;7.63;;;5.13;;
29732;SDS011;16643;43.158;25.302;2023-05-07T03:21:33;8.18;;;4.75;;
29732;SDS011;16643;43.158;25.302;2023-05-07T03:23:59;7.70;;;4.70;;
29732;SDS011;16643;43.158;25.302;2023-05-07T03:26:25;8.15;;;4.43;;
29732;SDS011;16643;43.158;25.302;2023-05-07T03:28:51;9.63;;;4.43;;
29732;SDS011;16643;43.158;25.302;2023-05-07T03:31:17;8.30;;;4.65;;
29732;SDS011;16643;43.158;25.302;2023-05-07T03:36:34;5.78;;;3.55;;
29732;SDS011;16643;43.158;25.302;2023-05-07T03:39:00;9.23;;;4.55;;
29732;SDS011;16643;43.158;25.302;2023-05-07T03:41:25;8.60;;;4.75;;
29732;SDS011;16643;43.158;25.302;2023-05-07T03:43:51;11.13;;;4.00;;
29732;SDS011;16643;43.158;25.302;2023-05-07T03:46:17;9.10;;;4.28;;
29732;SDS011;16643;43.158;25.302;2023-05-07T03:48:42;7.28;;;4.38;;
29732;SDS011;16643;43.158;25.302;2023-05-07T03:51:08;8.52;;;4.25;;
29732;SDS011;16643;43.158;25.302;2023-05-07T03:53:34;6.63;;;4.50;;
29732;SDS011;16643;43.158;25.302;2023-05-07T03:55:59;10.05;;;4.63;;
29732;SDS011;16643;43.158;25.302;2023-05-07T03:58:25;7.75;;;4.00;;
29732;SDS011;16643;43.158;25.302;2023-05-07T04:00:50;9.25;;;4.03;;
29732;SDS011;16643;43.158;25.302;2023-05-07T04:03:16;8.23;;;4.05;;
29732;SDS011;16643;43.158;25.302;2023-05-07T04:05:42;8.60;;;3.80;;
29732;SDS011;16643;43.158;25.302;2023-05-07T04:08:07;5.95;;;4.10;;
29732;SDS011;16643;43.158;25.302;2023-05-07T04:10:33;6.50;;;3.78;;
29732;SDS011;16643;43.158;25.302;2023-05-07T04:12:59;6.30;;;3.35;;
29732;SDS011;16643;43.158;25.302;2023-05-07T04:15:24;9.02;;;3.75;;
29732;SDS011;16643;43.158;25.302;2023-05-07T04:17:50;7.05;;;3.38;;
29732;SDS011;16643;43.158;25.302;2023-05-07T04:20:16;5.78;;;3.78;;
29732;SDS011;16643;43.158;25.302;2023-05-07T04:22:42;5.43;;;3.20;;
29732;SDS011;16643;43.158;25.302;2023-05-07T04:25:08;6.57;;;3.53;;
29732;SDS011;16643;43.158;25.302;2023-05-07T04:27:35;6.32;;;3.35;;
29732;SDS011;16643;43.158;25.302;2023-05-07T04:30:01;4.82;;;3.15;;
29732;SDS011;16643;43.158;25.302;2023-05-07T04:32:28;5.68;;;3.50;;
29732;SDS011;16643;43.158;25.302;2023-05-07T04:34:54;7.43;;;3.25;;
29732;SDS011;16643;43.158;25.302;2023-05-07T04:37:23;4.50;;;3.30;;
29732;SDS011;16643;43.158;25.302;2023-05-07T04:39:50;4.25;;;2.95;;
29732;SDS011;16643;43.158;25.302;2023-05-07T04:42:16;5.00;;;3.20;;
29732;SDS011;16643;43.158;25.302;2023-05-07T04:44:45;8.55;;;3.10;;
29732;SDS011;16643;43.158;25.302;2023-05-07T04:47:11;6.22;;;3.10;;
29732;SDS011;16643;43.158;25.302;2023-05-07T04:49:40;7.13;;;3.05;;
29732;SDS011;16643;43.158;25.302;2023-05-07T04:52:05;5.53;;;2.92;;
29732;SDS011;16643;43.158;25.302;2023-05-07T04:54:31;4.47;;;2.88;;
29732;SDS011;16643;43.158;25.302;2023-05-07T04:56:56;7.18;;;3.22;;
29732;SDS011;16643;43.158;25.302;2023-05-07T04:59:22;4.65;;;2.42;;
29732;SDS011;16643;43.158;25.302;2023-05-07T05:01:48;6.15;;;2.55;;
29732;SDS011;16643;43.158;25.302;2023-05-07T05:04:13;4.97;;;2.90;;
29732;SDS011;16643;43.158;25.302;2023-05-07T05:06:39;6.32;;;3.38;;
29732;SDS011;16643;43.158;25.302;2023-05-07T05:09:04;6.43;;;4.43;;
29732;SDS011;16643;43.158;25.302;2023-05-07T05:11:30;5.55;;;3.92;;
29732;SDS011;16643;43.158;25.302;2023-05-07T05:13:57;8.82;;;3.65;;
29732;SDS011;16643;43.158;25.302;2023-05-07T05:16:24;5.18;;;2.92;;
29732;SDS011;16643;43.158;25.302;2023-05-07T05:18:50;5.18;;;3.13;;
29732;SDS011;16643;43.158;25.302;2023-05-07T05:21:17;10.60;;;3.88;;
29732;SDS011;16643;43.158;25.302;2023-05-07T05:23:43;4.93;;;3.35;;
29732;SDS011;16643;43.158;25.302;2023-05-07T05:26:08;5.97;;;2.80;;
29732;SDS011;16643;43.158;25.302;2023-05-07T05:28:34;5.18;;;3.30;;
29732;SDS011;16643;43.158;25.302;2023-05-07T05:31:00;5.05;;;3.10;;
29732;SDS011;16643;43.158;25.302;2023-05-07T05:33:25;5.47;;;3.08;;
29732;SDS011;16643;43.158;25.302;2023-05-07T05:35:51;4.32;;;3.30;;
29732;SDS011;16643;43.158;25.302;2023-05-07T05:38:16;4.70;;;2.88;;
29732;SDS011;16643;43.158;25.302;2023-05-07T05:40:42;4.35;;;2.45;;
29732;SDS011;16643;43.158;25.302;2023-05-07T05:43:08;3.70;;;2.67;;
29732;SDS011;16643;43.158;25.302;2023-05-07T05:45:33;4.20;;;2.65;;
29732;SDS011;16643;43.158;25.302;2023-05-07T05:47:59;5.60;;;2.50;;
29732;SDS011;16643;43.158;25.302;2023-05-07T05:50:25;3.20;;;2.40;;
29732;SDS011;16643;43.158;25.302;2023-05-07T05:52:50;5.43;;;2.47;;
29732;SDS011;16643;43.158;25.302;2023-05-07T05:55:16;6.07;;;2.40;;
29732;SDS011;16643;43.158;25.302;2023-05-07T05:57:41;5.38;;;3.25;;
29732;SDS011;16643;43.158;25.302;2023-05-07T06:00:07;6.35;;;2.75;;
29732;SDS011;16643;43.158;25.302;2023-05-07T06:02:33;4.30;;;2.60;;
29732;SDS011;16643;43.158;25.302;2023-05-07T06:04:59;4.45;;;2.45;;
29732;SDS011;16643;43.158;25.302;2023-05-07T06:07:25;7.63;;;2.20;;
29732;SDS011;16643;43.158;25.302;2023-05-07T06:09:50;6.65;;;2.58;;
29732;SDS011;16643;43.158;25.302;2023-05-07T06:12:16;7.30;;;3.42;;
29732;SDS011;16643;43.158;25.302;2023-05-07T06:14:44;5.50;;;3.03;;
29732;SDS011;16643;43.158;25.302;2023-05-07T06:17:10;4.80;;;2.45;;
29732;SDS011;16643;43.158;25.302;2023-05-07T06:19:36;3.72;;;2.22;;
29732;SDS011;16643;43.158;25.302;2023-05-07T06:22:01;7.43;;;2.42;;
29732;SDS011;16643;43.158;25.302;2023-05-07T06:24:27;6.75;;;2.75;;
29732;SDS011;16643;43.158;25.302;2023-05-07T06:26:53;6.28;;;2.40;;
29732;SDS011;16643;43.158;25.302;2023-05-07T06:29:19;5.53;;;2.20;;
29732;SDS011;16643;43.158;25.302;2023-05-07T06:31:45;5.80;;;2.42;;
29732;SDS011;16643;43.158;25.302;2023-05-07T06:34:11;3.13;;;2.08;;
29732;SDS011;16643;43.158;25.302;2023-05-07T06:36:39;5.80;;;2.40;;
29732;SDS011;16643;43.158;25.302;2023-05-07T06:39:05;8.10;;;2.60;;
29732;SDS011;16643;43.158;25.302;2023-05-07T06:41:31;3.97;;;2.85;;
29732;SDS011;16643;43.158;25.302;2023-05-07T06:43:57;6.03;;;2.50;;
29732;SDS011;16643;43.158;25.302;2023-05-07T06:46:22;5.03;;;2.67;;
29732;SDS011;16643;43.158;25.302;2023-05-07T06:48:48;9.25;;;3.22;;
29732;SDS011;16643;43.158;25.302;2023-05-07T06:51:14;3.75;;;2.42;;
29732;SDS011;16643;43.158;25.302;2023-05-07T06:53:39;4.93;;;2.97;;
29732;SDS011;16643;43.158;25.302;2023-05-07T06:56:05;5.78;;;2.92;;
29732;SDS011;16643;43.158;25.302;2023-05-07T06:58:31;5.88;;;2.85;;
29732;SDS011;16643;43.158;25.302;2023-05-07T07:00:57;4.03;;;2.58;;
29732;SDS011;16643;43.158;25.302;2023-05-07T07:03:22;2.88;;;1.77;;
29732;SDS011;16643;43.158;25.302;2023-05-07T07:05:51;3.28;;;1.60;;
29732;SDS011;16643;43.158;25.302;2023-05-07T07:08:18;4.35;;;2.22;;
29732;SDS011;16643;43.158;25.302;2023-05-07T07:10:43;3.92;;;2.05;;
29732;SDS011;16643;43.158;25.302;2023-05-07T07:13:09;6.28;;;2.33;;
29732;SDS011;16643;43.158;25.302;2023-05-07T07:15:34;7.43;;;3.13;;
29732;SDS011;16643;43.158;25.302;2023-05-07T07:18:00;5.72;;;2.35;;
29732;SDS011;16643;43.158;25.302;2023-05-07T07:20:26;3.72;;;2.30;;
29732;SDS011;16643;43.158;25.302;2023-05-07T07:22:51;4.97;;;2.25;;
29732;SDS011;16643;43.158;25.302;2023-05-07T07:25:17;2.75;;;1.90;;
29732;SDS011;16643;43.158;25.302;2023-05-07T07:27:42;3.97;;;1.60;;
29732;SDS011;16643;43.158;25.302;2023-05-07T07:30:08;6.85;;;2.58;;
29732;SDS011;16643;43.158;25.302;2023-05-07T07:32:34;6.97;;;2.17;;
29732;SDS011;16643;43.158;25.302;2023-05-07T07:35:00;6.00;;;2.13;;
29732;SDS011;16643;43.158;25.302;2023-05-07T07:37:25;4.50;;;1.55;;
29732;SDS011;16643;43.158;25.302;2023-05-07T07:39:51;5.35;;;2.17;;
29732;SDS011;16643;43.158;25.302;2023-05-07T07:42:17;2.13;;;1.50;;
29732;SDS011;16643;43.158;25.302;2023-05-07T07:44:43;5.60;;;2.08;;
29732;SDS011;16643;43.158;25.302;2023-05-07T07:47:09;2.13;;;1.42;;
29732;SDS011;16643;43.158;25.302;2023-05-07T07:49:34;2.70;;;1.50;;
29732;SDS011;16643;43.158;25.302;2023-05-07T07:52:00;3.55;;;1.75;;
29732;SDS011;16643;43.158;25.302;2023-05-07T07:54:26;4.72;;;1.75;;
29732;SDS011;16643;43.158;25.302;2023-05-07T07:56:51;3.65;;;1.48;;
29732;SDS011;16643;43.158;25.302;2023-05-07T07:59:17;2.83;;;1.30;;
29732;SDS011;16643;43.158;25.302;2023-05-07T08:01:44;3.67;;;1.58;;
29732;SDS011;16643;43.158;25.302;2023-05-07T08:04:10;4.38;;;1.52;;
29732;SDS011;16643;43.158;25.302;2023-05-07T08:06:36;2.13;;;1.30;;
29732;SDS011;16643;43.158;25.302;2023-05-07T08:09:01;2.92;;;1.38;;
29732;SDS011;16643;43.158;25.302;2023-05-07T08:11:27;1.77;;;1.15;;
29732;SDS011;16643;43.158;25.302;2023-05-07T08:13:54;4.57;;;1.50;;
29732;SDS011;16643;43.158;25.302;2023-05-07T08:16:20;4.55;;;1.65;;
29732;SDS011;16643;43.158;25.302;2023-05-07T08:18:45;2.80;;;1.25;;
29732;SDS011;16643;43.158;25.302;2023-05-07T08:21:11;6.72;;;1.83;;
29732;SDS011;16643;43.158;25.302;2023-05-07T08:23:37;5.25;;;1.90;;
29732;SDS011;16643;43.158;25.302;2023-05-07T08:26:02;3.10;;;1.63;;
29732;SDS011;16643;43.158;25.302;2023-05-07T08:28:28;3.97;;;1.50;;
29732;SDS011;16643;43.158;25.302;2023-05-07T08:30:54;3.15;;;1.42;;
29732;SDS011;16643;43.158;25.302;2023-05-07T08:33:21;2.58;;;1.40;;
29732;SDS011;16643;43.158;25.302;2023-05-07T08:35:47;3.97;;;1.70;;
29732;SDS011;16643;43.158;25.302;2023-05-07T08:38:13;1.95;;;1.30;;
29732;SDS011;16643;43.158;25.302;2023-05-07T08:40:39;4.25;;;1.40;;
29732;SDS011;16643;43.158;25.302;2023-05-07T08:43:06;5.40;;;1.70;;
29732;SDS011;16643;43.158;25.302;2023-05-07T08:45:35;5.18;;;1.70;;
29732;SDS011;16643;43.158;25.302;2023-05-07T08:48:03;3.60;;;1.50;;
29732;SDS011;16643;43.158;25.302;2023-05-07T08:50:35;3.55;;;1.65;;
29732;SDS011;16643;43.158;25.302;2023-05-07T08:55:28;8.50;;;1.90;;
29732;SDS011;16643;43.158;25.302;2023-05-07T08:57:54;7.18;;;2.10;;
29732;SDS011;16643;43.158;25.302;2023-05-07T09:00:19;5.28;;;2.22;;
29732;SDS011;16643;43.158;25.302;2023-05-07T09:02:45;3.53;;;1.92;;
29732;SDS011;16643;43.158;25.302;2023-05-07T09:05:11;5.15;;;2.30;;
29732;SDS011;16643;43.158;25.302;2023-05-07T09:07:37;3.22;;;1.80;;
29732;SDS011;16643;43.158;25.302;2023-05-07T09:10:03;3.58;;;1.90;;
29732;SDS011;16643;43.158;25.302;2023-05-07T09:12:29;3.38;;;1.70;;
29732;SDS011;16643;43.158;25.302;2023-05-07T09:14:55;3.47;;;1.75;;
29732;SDS011;16643;43.158;25.302;2023-05-07T09:17:20;2.97;;;1.90;;
29732;SDS011;16643;43.158;25.302;2023-05-07T09:19:46;3.92;;;2.15;;
29732;SDS011;16643;43.158;25.302;2023-05-07T09:22:12;5.47;;;2.00;;
29732;SDS011;16643;43.158;25.302;2023-05-07T09:24:38;6.82;;;2.50;;
29732;SDS011;16643;43.158;25.302;2023-05-07T09:27:04;5.45;;;2.30;;
29732;SDS011;16643;43.158;25.302;2023-05-07T09:29:31;5.18;;;2.85;;
29732;SDS011;16643;43.158;25.302;2023-05-07T09:32:03;3.20;;;2.22;;
29732;SDS011;16643;43.158;25.302;2023-05-07T09:34:30;4.68;;;2.30;;
29732;SDS011;16643;43.158;25.302;2023-05-07T09:37:05;3.97;;;2.13;;
29732;SDS011;16643;43.158;25.302;2023-05-07T09:39:41;3.80;;;2.03;;
29732;SDS011;16643;43.158;25.302;2023-05-07T09:42:08;2.60;;;2.13;;
29732;SDS011;16643;43.158;25.302;2023-05-07T09:44:34;6.20;;;2.38;;
29732;SDS011;16643;43.158;25.302;2023-05-07T09:47:00;5.13;;;2.20;;
29732;SDS011;16643;43.158;25.302;2023-05-07T09:49:30;2.92;;;1.88;;
29732;SDS011;16643;43.158;25.302;2023-05-07T09:51:58;6.63;;;2.55;;
29732;SDS011;16643;43.158;25.302;2023-05-07T09:54:25;4.20;;;2.05;;
29732;SDS011;16643;43.158;25.302;2023-05-07T09:56:54;3.22;;;1.98;;
29732;SDS011;16643;43.158;25.302;2023-05-07T09:59:21;3.38;;;2.13;;
29732;SDS011;16643;43.158;25.302;2023-05-07T10:01:48;4.30;;;2.00;;
29732;SDS011;16643;43.158;25.302;2023-05-07T10:04:14;4.07;;;1.90;;
29732;SDS011;16643;43.158;25.302;2023-05-07T10:06:41;6.70;;;2.28;;
29732;SDS011;16643;43.158;25.302;2023-05-07T10:09:08;2.33;;;1.60;;
29732;SDS011;16643;43.158;25.302;2023-05-07T10:11:34;3.00;;;2.00;;
29732;SDS011;16643;43.158;25.302;2023-05-07T10:14:01;3.95;;;1.85;;
29732;SDS011;16643;43.158;25.302;2023-05-07T10:16:32;4.60;;;2.00;;
29732;SDS011;16643;43.158;25.302;2023-05-07T10:19:04;5.53;;;2.38;;
29732;SDS011;16643;43.158;25.302;2023-05-07T10:21:32;6.22;;;2.17;;
29732;SDS011;16643;43.158;25.302;2023-05-07T10:24:05;4.05;;;2.05;;
29732;SDS011;16643;43.158;25.302;2023-05-07T10:26:33;5.07;;;2.33;;
29732;SDS011;16643;43.158;25.302;2023-05-07T10:29:04;5.75;;;1.77;;
29732;SDS011;16643;43.158;25.302;2023-05-07T10:31:41;3.28;;;1.77;;
29732;SDS011;16643;43.158;25.302;2023-05-07T10:36:48;4.15;;;1.95;;
29732;SDS011;16643;43.158;25.302;2023-05-07T10:39:15;5.28;;;3.08;;
29732;SDS011;16643;43.158;25.302;2023-05-07T10:41:41;5.45;;;1.88;;
29732;SDS011;16643;43.158;25.302;2023-05-07T10:44:07;5.00;;;1.90;;
29732;SDS011;16643;43.158;25.302;2023-05-07T10:46:32;4.60;;;1.70;;
29732;SDS011;16643;43.158;25.302;2023-05-07T10:51:26;3.33;;;1.83;;
29732;SDS011;16643;43.158;25.302;2023-05-07T10:56:37;2.80;;;1.67;;
29732;SDS011;16643;43.158;25.302;2023-05-07T11:04:22;2.33;;;1.70;;
29732;SDS011;16643;43.158;25.302;2023-05-07T11:09:56;4.90;;;1.88;;
29732;SDS011;16643;43.158;25.302;2023-05-07T11:15:07;4.25;;;1.98;;
29732;SDS011;16643;43.158;25.302;2023-05-07T11:17:34;3.63;;;1.70;;
29732;SDS011;16643;43.158;25.302;2023-05-07T11:20:17;2.83;;;2.03;;
29732;SDS011;16643;43.158;25.302;2023-05-07T11:22:43;3.72;;;2.25;;
29732;SDS011;16643;43.158;25.302;2023-05-07T11:25:08;4.75;;;2.25;;
29732;SDS011;16643;43.158;25.302;2023-05-07T11:27:34;3.35;;;2.10;;
29732;SDS011;16643;43.158;25.302;2023-05-07T11:30:00;3.83;;;1.90;;
29732;SDS011;16643;43.158;25.302;2023-05-07T11:32:29;5.43;;;1.80;;
29732;SDS011;16643;43.158;25.302;2023-05-07T11:34:57;3.63;;;2.38;;
29732;SDS011;16643;43.158;25.302;2023-05-07T11:37:24;4.75;;;2.05;;
29732;SDS011;16643;43.158;25.302;2023-05-07T11:42:28;5.28;;;2.38;;
29732;SDS011;16643;43.158;25.302;2023-05-07T11:44:55;5.72;;;2.15;;
29732;SDS011;16643;43.158;25.302;2023-05-07T11:47:20;3.50;;;1.77;;
29732;SDS011;16643;43.158;25.302;2023-05-07T11:49:47;8.75;;;2.33;;
29732;SDS011;16643;43.158;25.302;2023-05-07T11:52:14;6.03;;;2.10;;
29732;SDS011;16643;43.158;25.302;2023-05-07T11:54:40;6.15;;;1.83;;
29732;SDS011;16643;43.158;25.302;2023-05-07T11:57:06;4.53;;;2.13;;
29732;SDS011;16643;43.158;25.302;2023-05-07T11:59:38;4.05;;;1.73;;
29732;SDS011;16643;43.158;25.302;2023-05-07T12:02:09;3.50;;;2.10;;
29732;SDS011;16643;43.158;25.302;2023-05-07T12:04:35;2.95;;;2.17;;
29732;SDS011;16643;43.158;25.302;2023-05-07T12:07:01;4.25;;;2.08;;
29732;SDS011;16643;43.158;25.302;2023-05-07T12:09:26;6.18;;;2.97;;
29732;SDS011;16643;43.158;25.302;2023-05-07T12:11:52;4.30;;;1.88;;
29732;SDS011;16643;43.158;25.302;2023-05-07T12:14:18;5.00;;;2.35;;
29732;SDS011;16643;43.158;25.302;2023-05-07T12:16:44;4.38;;;1.92;;
29732;SDS011;16643;43.158;25.302;2023-05-07T12:19:10;5.35;;;2.10;;
29732;SDS011;16643;43.158;25.302;2023-05-07T12:21:40;4.78;;;2.10;;
29732;SDS011;16643;43.158;25.302;2023-05-07T12:24:06;3.63;;;2.45;;
29732;SDS011;16643;43.158;25.302;2023-05-07T12:26:36;5.13;;;2.30;;
29732;SDS011;16643;43.158;25.302;2023-05-07T12:29:03;4.60;;;2.25;;
29732;SDS011;16643;43.158;25.302;2023-05-07T12:31:29;6.68;;;2.42;;
29732;SDS011;16643;43.158;25.302;2023-05-07T12:33:55;5.28;;;2.67;;
29732;SDS011;16643;43.158;25.302;2023-05-07T12:36:21;6.82;;;2.38;;
29732;SDS011;16643;43.158;25.302;2023-05-07T12:38:48;4.35;;;2.47;;
29732;SDS011;16643;43.158;25.302;2023-05-07T12:41:15;3.33;;;2.10;;
29732;SDS011;16643;43.158;25.302;2023-05-07T12:43:44;4.97;;;2.00;;
29732;SDS011;16643;43.158;25.302;2023-05-07T12:46:11;5.05;;;2.47;;
29732;SDS011;16643;43.158;25.302;2023-05-07T12:48:45;5.78;;;2.60;;
29732;SDS011;16643;43.158;25.302;2023-05-07T12:51:11;3.80;;;1.98;;
29732;SDS011;16643;43.158;25.302;2023-05-07T12:53:42;6.35;;;2.90;;
29732;SDS011;16643;43.158;25.302;2023-05-07T12:56:08;3.42;;;2.22;;
29732;SDS011;16643;43.158;25.302;2023-05-07T12:58:34;3.55;;;2.30;;
29732;SDS011;16643;43.158;25.302;2023-05-07T13:01:04;5.27;;;2.40;;
29732;SDS011;16643;43.158;25.302;2023-05-07T13:03:32;5.35;;;2.42;;
29732;SDS011;16643;43.158;25.302;2023-05-07T13:08:31;2.60;;;1.98;;
29732;SDS011;16643;43.158;25.302;2023-05-07T13:11:00;3.78;;;2.20;;
29732;SDS011;16643;43.158;25.302;2023-05-07T13:13:33;5.43;;;2.22;;
29732;SDS011;16643;43.158;25.302;2023-05-07T13:16:00;5.43;;;2.35;;
29732;SDS011;16643;43.158;25.302;2023-05-07T13:18:28;3.83;;;2.25;;
29732;SDS011;16643;43.158;25.302;2023-05-07T13:20:55;5.72;;;2.20;;
29732;SDS011;16643;43.158;25.302;2023-05-07T13:23:20;6.07;;;2.67;;
29732;SDS011;16643;43.158;25.302;2023-05-07T13:25:47;3.63;;;1.77;;
29732;SDS011;16643;43.158;25.302;2023-05-07T13:28:13;3.73;;;1.70;;
29732;SDS011;16643;43.158;25.302;2023-05-07T13:30:39;5.00;;;2.40;;
29732;SDS011;16643;43.158;25.302;2023-05-07T13:33:06;3.20;;;1.80;;
29732;SDS011;16643;43.158;25.302;2023-05-07T13:35:32;3.65;;;2.45;;
29732;SDS011;16643;43.158;25.302;2023-05-07T13:37:58;5.25;;;2.17;;
29732;SDS011;16643;43.158;25.302;2023-05-07T13:40:23;3.08;;;1.92;;
29732;SDS011;16643;43.158;25.302;2023-05-07T13:42:49;4.90;;;2.17;;
29732;SDS011;16643;43.158;25.302;2023-05-07T13:45:16;11.93;;;2.60;;
29732;SDS011;16643;43.158;25.302;2023-05-07T13:47:43;4.45;;;2.45;;
29732;SDS011;16643;43.158;25.302;2023-05-07T13:50:09;5.00;;;2.42;;
29732;SDS011;16643;43.158;25.302;2023-05-07T13:52:36;8.35;;;2.75;;
29732;SDS011;16643;43.158;25.302;2023-05-07T13:55:03;5.85;;;2.00;;
29732;SDS011;16643;43.158;25.302;2023-05-07T13:57:29;4.75;;;2.33;;
29732;SDS011;16643;43.158;25.302;2023-05-07T13:59:54;2.92;;;2.28;;
29732;SDS011;16643;43.158;25.302;2023-05-07T14:02:20;4.15;;;2.03;;
29732;SDS011;16643;43.158;25.302;2023-05-07T14:04:46;4.68;;;2.75;;
29732;SDS011;16643;43.158;25.302;2023-05-07T14:07:11;3.58;;;2.17;;
29732;SDS011;16643;43.158;25.302;2023-05-07T14:09:37;7.40;;;2.20;;
29732;SDS011;16643;43.158;25.302;2023-05-07T14:12:03;3.63;;;2.42;;
29732;SDS011;16643;43.158;25.302;2023-05-07T14:14:29;3.58;;;1.98;;
29732;SDS011;16643;43.158;25.302;2023-05-07T14:16:54;6.45;;;2.50;;
29732;SDS011;16643;43.158;25.302;2023-05-07T14:19:20;5.40;;;2.45;;
29732;SDS011;16643;43.158;25.302;2023-05-07T14:21:48;2.65;;;2.03;;
29732;SDS011;16643;43.158;25.302;2023-05-07T14:24:14;4.28;;;2.50;;
29732;SDS011;16643;43.158;25.302;2023-05-07T14:26:39;4.60;;;2.53;;
29732;SDS011;16643;43.158;25.302;2023-05-07T14:29:05;7.95;;;2.45;;
29732;SDS011;16643;43.158;25.302;2023-05-07T14:31:31;4.63;;;2.30;;
29732;SDS011;16643;43.158;25.302;2023-05-07T14:33:57;5.43;;;2.00;;
29732;SDS011;16643;43.158;25.302;2023-05-07T14:36:24;6.22;;;2.55;;
29732;SDS011;16643;43.158;25.302;2023-05-07T14:38:51;2.92;;;1.80;;
29732;SDS011;16643;43.158;25.302;2023-05-07T14:41:19;4.75;;;2.40;;
29732;SDS011;16643;43.158;25.302;2023-05-07T14:43:46;3.80;;;2.17;;
29732;SDS011;16643;43.158;25.302;2023-05-07T14:46:17;3.38;;;2.00;;
29732;SDS011;16643;43.158;25.302;2023-05-07T14:48:44;3.83;;;2.25;;
29732;SDS011;16643;43.158;25.302;2023-05-07T14:51:11;3.92;;;2.00;;
29732;SDS011;16643;43.158;25.302;2023-05-07T14:53:37;3.67;;;2.45;;
29732;SDS011;16643;43.158;25.302;2023-05-07T14:56:03;4.47;;;2.20;;
29732;SDS011;16643;43.158;25.302;2023-05-07T14:58:30;4.00;;;2.20;;